Station PRHH1 - 1612401 - Pearl Harbor, HI Image indicating link to RSS feed of recent meteorological observations for station PRHH1


Conditions at PRHH1 as of
(12:30 am HST)
1030 GMT on 09/01/2026:
     

Click on the graph icon in the table below to see a time series plot of the last five days of that observation.

5-day plot - Wind Direction Wind Direction (WDIR): N ( 10 deg true )
5-day plot - Wind Speed Wind Speed (WSPD): 15.0 kts
5-day plot - Wind Gust Wind Gust (GST): 19.0 kts
5-day plot - Atmospheric Pressure Atmospheric Pressure (PRES):29.99 in
5-day plot - Air Temperature Air Temperature (ATMP): 79.7 °F
5-day plot - Wind Speed at 10 Meters Wind Speed at 10 meters (WSPD10M): 13.6 kts
5-day plot - Wind Speed at 20 Meters Wind Speed at 20 meters (WSPD20M): 15.5 kts
5-day plot -  Wind Speed, Wind Gust and Atmospheric Pressure Combined plot of Wind Speed, Gust, and Air Pressure
NOS Water Level Observation Network Water Level
Previous observations
TIME
(HST)
5-day plot - Wind Direction
WDIR
 
5-day plot - Wind Speed
WSPD
kts
5-day plot - Wind Gust
GST
kts
5-day plot - Wave Height
WVHT
ft
5-day plot - Dominant Wave Period
DPD
sec
5-day plot - Average Wave Period
APD
sec
5-day plot - Mean Wave Direction
MWD
 
5-day plot - Atmospheric Pressure
PRES
in
5-day plot - Pressure Tendency
PTDY
in
5-day plot - Air Temperature
ATMP
°F
5-day plot - Water Temperature
WTMP
°F
5-day plot - Dew Point
DEWP
°F
5-day plot - Salinity
SAL
psu
5-day plot - Visibility
VIS
nmi
5-day plot - Tide (above MLLW)
TIDE
ft
2026-09-01 12:24 am N 13.0 20.0----29.99- 79.5-----
2026-09-01 12:18 amNNE 13.0 18.1----29.99-------
2026-09-01 12:12 am N 14.0 19.0----29.99-------
2026-09-01 12:06 am N 15.0 22.0----29.99-------
2026-09-01 12:00 amNNE 13.0 19.0----29.99- 79.5-----
2026-08-31 11:54 pmNNE 14.0 18.1----30.00- 79.5-----
2026-08-31 11:48 pm N 14.0 20.0----30.00- 79.9-----
2026-08-31 11:42 pmNNE 15.0 20.0----30.00- 79.9-----
2026-08-31 11:36 pmNNE 13.0 20.0----30.00- 79.9-----
2026-08-31 11:30 pmNNE 13.0 15.9----30.00- 79.7-----
2026-08-31 11:24 pmNNE 15.0 19.0----30.01- 79.7-----
2026-08-31 11:18 pmNNE 13.0 15.9----30.01-------
2026-08-31 11:12 pmNNE 9.9 14.0----30.01-------
2026-08-31 11:06 pmNNE 12.0 15.0----30.01-------
2026-08-31 11:00 pmNNE 14.0 19.0----30.01+0.04 79.9-----
2026-08-31 10:54 pmNNE 12.0 15.9----30.01- 79.7-----
2026-08-31 10:48 pm N 14.0 17.1----30.01-------
2026-08-31 10:42 pmNNE 11.1 14.0----30.01-------
2026-08-31 10:36 pmNNE 9.9 15.0----30.01-------
2026-08-31 10:30 pmNNE 15.0 22.0----30.02- 80.1-----
2026-08-31 10:24 pmNNE 15.0 20.0----30.01- 79.9-----
2026-08-31 10:18 pmNNE 12.0 19.0----30.02-------
2026-08-31 10:12 pmNNE 13.0 17.1----30.02-------
2026-08-31 10:06 pm N 12.0 19.0----30.02-------
2026-08-31 10:00 pmNNE 13.0 20.0----30.02+0.05 80.2-----
2026-08-31 09:54 pmNNE 12.0 15.9----30.01- 80.1-----
2026-08-31 09:48 pmNNE 9.9 14.0----30.01- 80.1-----
2026-08-31 09:42 pmNNE 11.1 18.1----30.02- 80.1-----
2026-08-31 09:36 pmNNE 11.1 14.0----30.01- 80.1-----
2026-08-31 09:30 pmNNE 11.1 15.0----30.01- 80.1-----
2026-08-31 09:24 pmNNE 8.9 13.0----30.01- 80.1-----
2026-08-31 09:18 pmNNE 8.9 15.0----30.01- 80.1-----
2026-08-31 09:12 pmNNE 9.9 15.0----30.01- 80.1-----
2026-08-31 09:06 pm NE 8.9 14.0----30.00- 80.1-----
2026-08-31 09:00 pmNNE 9.9 15.0------ 80.1-----
2026-08-31 08:54 pmNNE 11.1 19.0------ 80.2-----
2026-08-31 08:48 pmNNE 17.1 21.0----29.99- 80.4-----
2026-08-31 08:42 pmNNE 15.9 20.0----29.99- 80.1-----
2026-08-31 08:36 pm N 13.0 18.1----29.99- 80.2-----
2026-08-31 08:30 pmNNE 14.0 19.0----29.98-------
2026-08-31 08:24 pmNNE 15.9 21.0----29.98-------
2026-08-31 08:18 pmNNE 13.0 19.0----29.98-------
2026-08-31 08:12 pmNNE 12.0 19.0----29.98-------
2026-08-31 08:06 pmNNE 12.0 15.9----29.98-------
2026-08-31 08:00 pmNNE 13.0 18.1----29.98+0.04 79.7-----
2026-08-31 07:54 pmNNE 9.9 15.9----29.98- 79.5-----
2026-08-31 07:48 pmNNE 13.0 17.1----29.97- 79.3-----
2026-08-31 07:42 pm NE 6.0 13.0----29.98- 80.1-----
2026-08-31 07:36 pmNNE 9.9 14.0----29.97- 80.1-----
2026-08-31 07:30 pmNNE 9.9 13.0----29.97- 80.1-----
2026-08-31 07:24 pmNNE 9.9 15.9----29.97- 80.2-----
2026-08-31 07:18 pmNNE 11.1 15.0----29.97-------
2026-08-31 07:12 pm NE 11.1 15.9----29.97-------
2026-08-31 07:06 pmNNE 12.0 15.0----29.97-------
2026-08-31 07:00 pmNNE 6.0 13.0----29.97+0.04 80.2-----
2026-08-31 06:54 pmNNE 9.9 13.0----29.96- 80.2-----
2026-08-31 06:48 pmNNE 9.9 14.0----29.96- 80.2-----
2026-08-31 06:42 pmNNE 9.9 14.0----29.96- 80.4-----
2026-08-31 06:36 pm NE 11.1 15.9----29.96- 80.4-----
2026-08-31 06:30 pmNNE 11.1 17.1----29.95- 80.6-----
2026-08-31 06:24 pmNNE 8.0 13.0----29.95- 80.6-----
2026-08-31 06:18 pmNNE 9.9 17.1----29.95-------
2026-08-31 06:12 pmNNE 8.0 14.0----29.95-------
2026-08-31 06:06 pmNNE 6.0 11.1----29.95-------
2026-08-31 06:00 pmNNE 7.0 12.0----29.95+0.00 81.3-----
2026-08-31 05:54 pmNNE 8.0 17.1----29.95- 81.0-----
2026-08-31 05:48 pm N 11.1 18.1----29.95-------
2026-08-31 05:42 pmNNE 12.0 15.0----29.95-------
2026-08-31 05:36 pmNNE 9.9 13.0----29.95-------
2026-08-31 05:30 pmNNE 11.1 19.0----29.94- 81.3-----
2026-08-31 05:24 pmNNE 13.0 18.1----29.94- 81.7-----
2026-08-31 05:18 pmNNE 7.0 14.0------------
2026-08-31 05:12 pmNNE 9.9 14.0------------
2026-08-31 05:06 pmNNE 8.0 15.9------------
2026-08-31 05:00 pmNNE 13.0 20.0----29.94-0.02 81.9-----
2026-08-31 04:54 pmNNE 12.0 18.1----29.94- 81.9-----
2026-08-31 04:48 pmNNE 11.1 18.1----29.94- 82.2-----
2026-08-31 04:42 pmNNE 14.0 18.1----29.93- 81.9-----
2026-08-31 04:36 pmNNE 13.0 18.1----29.94- 82.0-----
2026-08-31 04:30 pm N 12.0 15.9----29.94- 81.7-----
2026-08-31 04:24 pm N 11.1 17.1----29.94- 82.2-----
2026-08-31 04:18 pm N 12.0 18.1----29.93-------
2026-08-31 04:12 pmNNE 15.9 21.0----29.93-------
2026-08-31 04:06 pmNNE 15.0 20.0----29.93-------
2026-08-31 04:00 pmNNE 15.9 20.0----29.93-0.05 81.9-----
2026-08-31 03:54 pmNNE 15.0 22.0----29.93- 81.9-----
2026-08-31 03:48 pmNNE 14.0 19.0----29.93- 82.2-----
2026-08-31 03:42 pmNNE 15.9 19.0----29.93- 82.0-----
2026-08-31 03:36 pm N 17.1 20.0----29.93- 82.0-----
2026-08-31 03:30 pm N 19.0 25.1----29.93- 82.0-----
2026-08-31 03:24 pmNNE 15.0 18.1----29.94- 82.6-----
2026-08-31 03:18 pm N 15.0 20.0----29.94-------
2026-08-31 03:12 pmNNE 13.0 19.0----29.94-------
2026-08-31 03:06 pm N 15.9 21.0----29.94-------
2026-08-31 03:00 pmNNE 15.0 21.0----29.94-0.06 82.0-----
2026-08-31 02:54 pm N 18.1 22.9----29.94- 81.9-----
2026-08-31 02:48 pm N 17.1 21.0----29.94-------
2026-08-31 02:42 pmNNE 12.0 24.1----29.94-------
2026-08-31 02:36 pm N 17.1 22.0----29.94-------
2026-08-31 02:30 pmNNE 17.1 22.0----29.95- 82.6-----
2026-08-31 02:24 pmNNE 15.9 20.0----29.95- 82.4-----
2026-08-31 02:18 pmNNE 13.0 15.9----29.95-------
2026-08-31 02:12 pmNNE 9.9 17.1----29.95-------
2026-08-31 02:06 pmNNE 13.0 17.1----29.95-------
2026-08-31 02:00 pm N 17.1 22.0----29.96-0.06 81.7-----
2026-08-31 01:54 pmNNE 9.9 19.0----29.96- 82.4-----
2026-08-31 01:48 pmNNE 12.0 18.1----29.96-------
2026-08-31 01:42 pmNNE 13.0 19.0----29.96-------
2026-08-31 01:36 pmNNE 14.0 22.0----29.96-------
2026-08-31 12:48 pmNNE 15.0 22.0----29.98- 82.4-----
2026-08-31 12:42 pmNNE 13.0 17.1----29.99- 82.0-----
2026-08-31 12:36 pmNNE 15.0 18.1----29.99- 81.7-----
2026-08-31 12:30 pmNNE 15.0 19.0----29.99- 82.4-----
2026-08-31 12:24 pmNNE 12.0 15.0----29.99- 82.2-----
2026-08-31 12:18 pmNNE 11.1 18.1----29.99- 82.0-----
2026-08-31 12:12 pm N 13.0 17.1----29.99- 81.7-----
2026-08-31 12:06 pmNNE 9.9 14.0----30.00- 81.9-----
2026-08-31 12:00 pmNNE 11.1 15.0----30.01-0.01 81.1-----
2026-08-31 11:54 amNNE 13.0 15.9----30.01- 81.0-----
2026-08-31 11:48 amNNE 11.1 17.1----30.01- 81.9-----
2026-08-31 11:42 amNNE 11.1 17.1----30.01- 82.0-----
2026-08-31 11:36 amNNE 12.0 15.0----30.01- 82.2-----
2026-08-31 11:30 amNNE 14.0 19.0----30.01- 81.5-----
2026-08-31 11:24 am N 14.0 19.0----30.01- 81.5-----
2026-08-31 11:18 amNNE 8.0 15.0----30.01-------
2026-08-31 11:12 amNNE 11.1 14.0----30.01-------
2026-08-31 11:06 amNNE 11.1 14.0----30.01-------
2026-08-31 11:00 amNNE 11.1 19.0----30.01+0.00 82.0-----
2026-08-31 10:54 amNNE 9.9 14.0----30.01- 82.2-----
2026-08-31 10:48 amNNE 12.0 15.9----30.02- 81.9-----
2026-08-31 10:42 amNNE 12.0 18.1----30.01- 81.7-----
2026-08-31 10:36 amNNE 9.9 13.0----30.02- 82.0-----
2026-08-31 10:30 amNNE 9.9 15.9----30.02- 81.5-----
2026-08-31 10:24 amNNE 8.9 12.0----30.02- 81.7-----
2026-08-31 10:18 amNNE 8.0 14.0----30.02-------
2026-08-31 10:12 amNNE 12.0 17.1----30.02-------
2026-08-31 10:06 amNNE 8.9 12.0----30.02-------
2026-08-31 10:00 amNNE 8.9 15.9----30.02+0.03 81.1-----
2026-08-31 09:54 amNNE 12.0 19.0----30.02- 81.5-----
2026-08-31 09:48 amNNE 12.0 15.0----30.02- 81.9-----
2026-08-31 09:42 amNNE 9.9 15.0----30.02- 81.7-----
2026-08-31 09:36 amNNE 11.1 15.0----30.02- 81.5-----
2026-08-31 09:30 amNNE 11.1 13.0----30.02- 81.7-----
2026-08-31 09:24 am N 13.0 15.9----30.01- 81.1-----
2026-08-31 09:18 am NE 9.9 14.0----30.01-------
2026-08-31 09:12 amNNE 9.9 17.1----30.02-------
2026-08-31 09:06 amNNE 9.9 13.0----30.02-------
2026-08-31 09:00 amNNE 12.0 15.9----30.01+0.03 80.8-----
2026-08-31 08:54 am NE 11.1 15.0----30.01- 81.3-----
2026-08-31 08:48 amNNE 9.9 15.0----30.02- 81.3-----
2026-08-31 08:42 amNNE 9.9 12.0----30.01- 81.3-----
2026-08-31 08:36 am N 9.9 14.0----30.01- 80.8-----
2026-08-31 08:30 am N 8.0 18.1----30.01- 80.8-----
2026-08-31 08:24 amNNE 11.1 15.0----30.01- 80.8-----
2026-08-31 08:18 am N 11.1 15.9----30.01-------
2026-08-31 08:12 amNNE 8.0 9.9----30.01-------
2026-08-31 08:06 amNNE 8.0 14.0----30.01-------
2026-08-31 08:00 amNNE 9.9 13.0----30.01+0.03 80.1-----
2026-08-31 07:54 amNNE 8.9 13.0----30.01- 80.1-----
2026-08-31 07:48 amNNE 6.0 8.9----30.01-------
2026-08-31 07:42 amNNE 9.9 13.0----30.01-------
2026-08-31 07:36 amNNE 9.9 14.0----30.01-------
2026-08-31 07:30 amNNE 8.9 13.0----30.00- 79.5-----
2026-08-31 07:24 amNNE 7.0 13.0----30.00- 79.7-----
2026-08-31 07:18 amNNE 6.0 11.1----30.00-------
2026-08-31 07:12 amNNE 8.0 11.1----30.00-------
2026-08-31 07:06 amNNE 11.1 15.0----29.99-------
2026-08-31 07:00 am N 8.0 11.1----29.99+0.02 79.5-----
2026-08-31 06:54 amNNE 8.0 11.1----29.99- 79.3-----
2026-08-31 06:48 amNNE 7.0 11.1----29.99- 79.5-----
2026-08-31 06:42 amNNE 7.0 12.0----29.99- 79.3-----
2026-08-31 06:36 am NE 6.0 12.0----29.99- 79.0-----
2026-08-31 06:30 amNNE 7.0 21.0----29.99- 79.0-----
2026-08-31 06:24 amNNE 8.0 13.0----29.99- 79.2-----
2026-08-31 06:18 amNNE 8.0 14.0----29.99-------
2026-08-31 06:12 amNNE 11.1 15.0----29.98-------
2026-08-31 06:06 amNNE 9.9 14.0----29.98-------
2026-08-31 06:00 amNNE 7.0 11.1----29.98+0.00 78.8-----
2026-08-31 05:54 amNNE 7.0 11.1----29.98- 79.0-----
2026-08-31 05:48 amNNE 8.0 11.1----29.98- 78.8-----
2026-08-31 05:42 amNNE 8.9 12.0----29.98- 78.8-----
2026-08-31 05:36 amNNE 9.9 15.9----29.98- 79.0-----
2026-08-31 05:30 amNNE 9.9 14.0----29.98- 79.2-----
2026-08-31 05:24 amNNE 8.9 12.0----29.98- 79.0-----
2026-08-31 05:18 amNNE 8.9 12.0----29.98-------
2026-08-31 05:12 amNNE 8.0 9.9----29.98-------
2026-08-31 05:06 amNNE 6.0 9.9----29.98-------
2026-08-31 05:00 amNNE 8.0 13.0----29.98-0.03 78.8-----
2026-08-31 04:54 amNNE 11.1 14.0----29.98- 78.8-----
2026-08-31 04:48 amNNE 7.0 12.0----29.98- 78.8-----
2026-08-31 04:42 amNNE 8.0 13.0----29.97- 78.8-----
2026-08-31 04:36 amNNE 5.1 8.0----29.98- 78.6-----
2026-08-31 04:30 amNNE 6.0 8.0----29.97- 78.6-----
2026-08-31 04:24 amNNE 7.0 11.1----29.97- 78.6-----
2026-08-31 04:18 amNNE 9.9 13.0----29.97-------
2026-08-31 04:12 amNNE 7.0 12.0----29.97-------
2026-08-31 04:06 am NE 2.9 6.0----29.97-------
2026-08-31 04:00 am NE 2.9 5.1----29.97- 76.5-----
2026-08-31 03:54 am NE 4.1 8.0----29.97- 76.5-----
2026-08-31 03:48 amENE 4.1 5.1----29.97-------
2026-08-31 03:42 amENE 5.1 6.0----29.97-------
2026-08-31 03:36 amENE 5.1 8.0----29.97-------
2026-08-31 03:30 am NE 5.1 8.9----29.97- 77.4-----
2026-08-31 03:24 amNNE 5.1 8.0----29.98- 77.0-----
2026-08-31 03:18 amNNE 8.0 11.1----29.98-------
2026-08-31 03:12 amNNE 8.0 12.0----29.98-------
2026-08-31 03:06 amNNE 8.0 12.0----29.98-------
2026-08-31 03:00 amNNE 8.9 12.0----29.98-0.06 78.1-----
2026-08-31 02:54 amNNE 7.0 11.1----29.98- 78.1-----
2026-08-31 02:48 am NE 6.0 9.9----29.99-------
2026-08-31 02:42 am NE 5.1 8.0----29.99-------
2026-08-31 02:36 am NE 4.1 6.0----29.99-------
2026-08-31 02:30 amENE 2.9 8.9----30.00- 75.9-----
2026-08-31 02:24 amNNE 6.0 11.1----30.00- 76.3-----
2026-08-31 02:18 amNNE 8.0 13.0----30.00-------
2026-08-31 02:12 amNNE 9.9 14.0----30.00-------
2026-08-31 02:06 amNNE 11.1 15.0----30.00-------
2026-08-31 02:00 amNNE 8.9 12.0----30.01-0.05 77.0-----
2026-08-31 01:54 am NE 6.0 8.0----30.01- 78.8-----
2026-08-31 01:48 am NE 5.1 8.0----30.00-------
2026-08-31 01:42 am NE 4.1 7.0----30.00-------
2026-08-31 01:36 am NE 4.1 9.9----30.01-------
2026-08-31 01:24 amNNE 6.0 8.9----30.01- 79.0-----
2026-08-31 01:18 amNNE 5.1 9.9----30.01-------
2026-08-31 01:12 am N 8.9 11.1----30.01-------
2026-08-31 01:06 amNNE 8.0 13.0----30.02-------
2026-08-31 12:54 amNNE 8.9 14.0----30.02- 78.8-----